Time;durP1;ratioP1;P1;durP2;ratioP2;P2;SDS_P1;SDS_P2;PMS_P1;PMS_P2;Temp;Humidity;BMP_temperature;BMP_pressure;BME280_temperature;BME280_humidity;BME280_pressure;Samples;Min_cycle;Max_cycle;Signal;HPM_P1;HPM_P2
2022/02/19 00:02:21;;;;;;;2.10;0.83;;;8.40;99.90;;;;;;5075702;28;20433;-76
2022/02/19 00:05:03;;;;;;;12.63;1.10;;;8.40;99.90;;;;;;5079556;28;20420;-76
2022/02/19 00:07:33;;;;;;;4.93;0.87;;;8.40;99.90;;;;;;5074139;28;20398;-76
2022/02/19 00:09:59;;;;;;;2.03;1.20;;;8.40;99.90;;;;;;5087304;28;20456;-76
2022/02/19 00:12:33;;;;;;;7.87;1.30;;;8.40;99.90;;;;;;5092507;28;20462;-76
2022/02/19 00:15:09;;;;;;;10.57;1.30;;;8.30;1.00;;;;;;5078119;28;20417;-77
2022/02/19 00:17:35;;;;;;;2.53;1.03;;;8.30;1.00;;;;;;5074285;28;20551;-74
2022/02/19 00:20:12;;;;;;;1.27;0.47;;;8.40;1.00;;;;;;5085296;28;20518;-73
2022/02/19 00:22:39;;;;;;;1.87;0.90;;;8.40;1.00;;;;;;5087557;28;20182;-73
2022/02/19 00:25:15;;;;;;;1.97;0.60;;;8.40;1.00;;;;;;5083923;28;20427;-74
2022/02/19 00:27:41;;;;;;;5.33;1.13;;;8.30;1.00;;;;;;5087768;28;20511;-74
2022/02/19 00:30:09;;;;;;;4.37;0.90;;;8.30;1.00;;;;;;5073780;28;20797;-73
2022/02/19 00:32:35;;;;;;;1.40;0.60;;;;;;;;;;5077809;28;20457;-77
2022/02/19 00:35:04;;;;;;;3.33;0.80;;;8.10;1.00;;;;;;5089449;28;20848;-76
2022/02/19 00:37:33;;;;;;;2.00;0.63;;;8.10;1.00;;;;;;5087458;28;20401;-76
2022/02/19 00:39:59;;;;;;;1.00;0.70;;;8.10;1.00;;;;;;5073643;28;20429;-77
2022/02/19 00:42:27;;;;;;;3.10;0.87;;;8.20;1.00;;;;;;5079891;28;20420;-76
2022/02/19 00:45:09;;;;;;;1.47;1.27;;;8.10;1.00;;;;;;5079598;28;20440;-77
2022/02/19 00:47:35;;;;;;;2.00;0.70;;;8.10;1.00;;;;;;5087564;28;20442;-76
2022/02/19 00:50:09;;;;;;;4.90;0.97;;;8.10;1.00;;;;;;5077304;28;20460;-76
2022/02/19 00:52:39;;;;;;;5.57;1.23;;;8.30;1.00;;;;;;5088272;28;20173;-77
2022/02/19 00:55:09;;;;;;;2.27;0.63;;;8.10;99.90;;;;;;5073926;28;20432;-76
2022/02/19 00:57:39;;;;;;;4.73;0.90;;;8.10;99.90;;;;;;5073580;28;20443;-77
2022/02/19 01:00:10;;;;;;;4.50;1.40;;;8.10;1.00;;;;;;5086693;28;20421;-76
2022/02/19 01:02:39;;;;;;;4.90;0.93;;;8.10;99.90;;;;;;5074743;28;20908;-74
2022/02/19 01:05:15;;;;;;;3.67;0.97;;;8.00;1.00;;;;;;5081669;28;20432;-74
2022/02/19 01:07:45;;;;;;;0.97;0.87;;;8.00;1.00;;;;;;5077004;28;20423;-75
2022/02/19 01:10:10;;;;;;;2.23;1.00;;;8.00;99.90;;;;;;5079203;28;20859;-74
2022/02/19 01:12:39;;;;;;;2.43;0.80;;;8.00;1.00;;;;;;5083145;28;20477;-73
2022/02/19 01:15:07;;;;;;;1.27;0.93;;;8.00;1.00;;;;;;5073369;28;20178;-78
2022/02/19 01:17:51;;;;;;;1.73;0.87;;;7.90;1.00;;;;;;5077514;28;20420;-76
2022/02/19 01:20:27;;;;;;;1.00;0.50;;;7.70;1.00;;;;;;5080246;28;20478;-77
2022/02/19 01:22:53;;;;;;;1.00;0.40;;;7.70;1.00;;;;;;5084826;28;20428;-77
2022/02/19 01:25:21;;;;;;;0.83;0.83;;;7.70;1.00;;;;;;5077314;28;20438;-77
2022/02/19 01:27:57;;;;;;;7.17;0.97;;;;;;;;;;5084702;28;20600;-76
2022/02/19 01:30:27;;;;;;;9.37;0.87;;;7.40;1.00;;;;;;5095599;28;20474;-77
2022/02/19 01:33:20;;;;;;;3.63;0.63;;;7.30;1.00;;;;;;5083104;28;20421;-76
2022/02/19 01:35:51;;;;;;;3.43;0.60;;;7.20;1.00;;;;;;5090017;28;20419;-75
2022/02/19 01:38:18;;;;;;;2.23;0.90;;;;;;;;;;5076358;28;20424;-76
2022/02/19 01:40:44;;;;;;;4.37;0.57;;;7.10;1.00;;;;;;5097275;28;20413;-75
2022/02/19 01:43:11;;;;;;;3.43;1.07;;;7.00;1.00;;;;;;5093625;28;20426;-75
2022/02/19 01:46:02;;;;;;;1.67;0.60;;;6.90;1.00;;;;;;5076925;28;20416;-76
2022/02/19 01:48:28;;;;;;;7.57;1.20;;;6.80;1.00;;;;;;5091706;28;20506;-75
2022/02/19 01:51:31;;;;;;;3.73;0.70;;;6.80;1.00;;;;;;5077100;28;20504;-76
2022/02/19 01:54:00;;;;;;;5.13;1.10;;;6.80;1.00;;;;;;5075422;28;20175;-76
2022/02/19 01:56:26;;;;;;;7.93;0.40;;;6.80;1.00;;;;;;5078678;28;20456;-75
2022/02/19 01:59:21;;;;;;;3.13;0.97;;;6.80;1.00;;;;;;5088012;28;20405;-76
2022/02/19 02:01:47;;;;;;;5.50;0.90;;;6.90;1.00;;;;;;5085592;28;20171;-76
2022/02/19 02:04:21;;;;;;;5.00;0.77;;;6.90;1.00;;;;;;5077109;28;20929;-73
2022/02/19 02:06:51;;;;;;;4.67;0.60;;;7.00;1.00;;;;;;5084856;28;20178;-73
2022/02/19 02:09:18;;;;;;;6.03;0.77;;;7.00;1.00;;;;;;5078511;28;20443;-73
2022/02/19 02:11:45;;;;;;;6.30;0.80;;;7.00;1.00;;;;;;5085221;28;20512;-73
2022/02/19 02:14:15;;;;;;;3.67;0.87;;;7.00;1.00;;;;;;5090957;28;20454;-73
2022/02/19 02:16:51;;;;;;;8.93;1.00;;;7.00;1.00;;;;;;5078604;28;20425;-73
2022/02/19 02:19:17;;;;;;;3.13;0.73;;;7.00;1.00;;;;;;5088205;28;20938;-75
2022/02/19 02:21:51;;;;;;;4.00;1.20;;;7.00;1.00;;;;;;5076141;28;20429;-76
2022/02/19 02:24:21;;;;;;;1.93;0.60;;;6.90;1.00;;;;;;5076154;28;20768;-76
2022/02/19 02:27:14;;;;;;;5.43;1.30;;;7.60;1.00;;;;;;5081892;28;20435;-75
2022/02/19 02:29:57;;;;;;;7.80;1.33;;;7.00;1.00;;;;;;5086096;28;20985;-75
2022/02/19 02:32:23;;;;;;;4.43;1.00;;;7.00;1.00;;;;;;5080953;28;20450;-76
2022/02/19 02:34:52;;;;;;;3.80;1.20;;;7.00;1.00;;;;;;5087473;28;20910;-73
2022/02/19 02:37:22;;;;;;;2.33;0.87;;;7.00;1.00;;;;;;5077365;28;20206;-74
2022/02/19 02:39:48;;;;;;;9.63;1.23;;;7.10;1.00;;;;;;5084471;28;20903;-73
2022/02/19 02:42:17;;;;;;;2.40;0.70;;;7.20;1.00;;;;;;5074656;28;20509;-73
2022/02/19 02:44:46;;;;;;;2.40;0.80;;;7.30;1.00;;;;;;5076884;28;20900;-72
2022/02/19 02:47:21;;;;;;;1.13;0.70;;;7.30;1.00;;;;;;5087653;28;20473;-73
2022/02/19 02:49:46;;;;;;;0.80;0.43;;;7.00;1.00;;;;;;5076185;28;20805;-73
2022/02/19 02:52:15;;;;;;;6.67;0.77;;;6.90;1.00;;;;;;5075431;28;20404;-73
2022/02/19 02:54:40;;;;;;;3.00;1.30;;;6.80;1.00;;;;;;5083282;28;20621;-73
2022/02/19 02:57:06;;;;;;;3.93;1.00;;;6.80;1.00;;;;;;5077470;28;20429;-73
2022/02/19 02:59:32;;;;;;;4.60;0.90;;;6.80;1.00;;;;;;5085394;28;20180;-73
2022/02/19 03:01:58;;;;;;;7.33;0.97;;;6.80;1.00;;;;;;5076662;28;20441;-73
2022/02/19 03:04:23;;;;;;;3.57;0.60;;;6.80;1.00;;;;;;5080873;28;20527;-73
2022/02/19 03:06:49;;;;;;;5.90;0.83;;;6.80;1.00;;;;;;5083551;28;20193;-73
2022/02/19 03:09:15;;;;;;;13.60;1.43;;;6.60;1.00;;;;;;5085960;28;20174;-73
2022/02/19 03:11:40;;;;;;;4.77;1.10;;;6.60;1.00;;;;;;5084168;28;20206;-73
2022/02/19 03:14:06;;;;;;;1.23;0.80;;;6.60;1.00;;;;;;5079747;28;20168;-73
2022/02/19 03:16:33;;;;;;;7.63;0.77;;;6.50;1.00;;;;;;5079470;28;20637;-73
2022/02/19 03:19:03;;;;;;;4.30;1.07;;;6.50;1.00;;;;;;5079102;28;20178;-76
2022/02/19 03:21:33;;;;;;;5.33;0.80;;;6.50;1.00;;;;;;5075260;28;20463;-76
2022/02/19 03:24:09;;;;;;;1.07;0.60;;;6.40;1.00;;;;;;5088419;28;20917;-76
2022/02/19 03:26:45;;;;;;;3.40;1.00;;;6.50;1.00;;;;;;5079731;28;20779;-76
2022/02/19 03:29:15;;;;;;;1.03;0.53;;;6.50;1.00;;;;;;5086030;28;20442;-76
2022/02/19 03:31:45;;;;;;;5.53;1.00;;;6.50;1.00;;;;;;5085254;28;20457;-76
2022/02/19 03:34:22;;;;;;;1.37;0.60;;;6.40;1.00;;;;;;5075176;28;20400;-73
2022/02/19 03:36:52;;;;;;;4.77;0.87;;;6.40;1.00;;;;;;5088374;28;20442;-73
2022/02/19 03:39:21;;;;;;;7.67;1.00;;;6.50;1.00;;;;;;5081382;28;20421;-73
2022/02/19 03:41:47;;;;;;;3.40;0.60;;;6.50;1.00;;;;;;5082359;28;20455;-73
2022/02/19 03:44:13;;;;;;;5.50;0.80;;;6.50;1.00;;;;;;5074783;28;20453;-73
2022/02/19 03:46:39;;;;;;;8.13;0.83;;;6.50;1.00;;;;;;5088020;28;20177;-73
2022/02/19 03:49:06;;;;;;;1.53;0.60;;;6.50;1.00;;;;;;5075033;28;20425;-75
2022/02/19 03:51:45;;;;;;;2.30;0.80;;;8.30;1.00;;;;;;5091584;28;20459;-76
2022/02/19 03:54:44;;;;;;;4.33;0.70;;;6.50;1.00;;;;;;5094778;28;20841;-75
2022/02/19 03:57:10;;;;;;;2.27;0.60;;;6.50;1.00;;;;;;5084561;28;20516;-75
2022/02/19 03:59:36;;;;;;;5.83;0.87;;;6.50;1.00;;;;;;5077186;28;20987;-76
2022/02/19 04:02:20;;;;;;;2.90;0.80;;;6.50;1.00;;;;;;5080353;28;20186;-76
2022/02/19 04:04:46;;;;;;;1.63;0.70;;;6.50;1.00;;;;;;5075443;28;20203;-73
2022/02/19 04:07:12;;;;;;;7.07;0.60;;;6.50;1.00;;;;;;5076034;28;20448;-73
2022/02/19 04:09:37;;;;;;;4.20;0.80;;;6.50;1.00;;;;;;5080284;28;20179;-73
2022/02/19 04:12:09;;;;;;;0.73;0.40;;;6.40;1.00;;;;;;5093071;28;20224;-73
2022/02/19 04:14:51;;;;;;;1.63;1.17;;;6.40;1.00;;;;;;5087469;28;20183;-73
2022/02/19 04:17:27;;;;;;;2.70;0.60;;;6.30;1.00;;;;;;5087414;28;20410;-75
2022/02/19 04:19:53;;;;;;;4.00;0.67;;;6.10;1.00;;;;;;5074369;28;20408;-74
2022/02/19 04:22:22;;;;;;;0.37;0.37;;;6.10;1.00;;;;;;5076272;28;20515;-74
2022/02/19 04:24:51;;;;;;;4.00;1.00;;;5.70;1.00;;;;;;5073903;28;20488;-73
2022/02/19 04:27:18;;;;;;;2.97;0.50;;;5.60;1.00;;;;;;5086473;28;20421;-73
2022/02/19 04:29:45;;;;;;;7.03;1.10;;;5.40;1.00;;;;;;5081797;28;20460;-73
2022/02/19 04:32:11;;;;;;;3.43;0.73;;;5.40;1.00;;;;;;5079521;28;20417;-72
2022/02/19 04:35:03;;;;;;;1.77;0.70;;;5.40;1.00;;;;;;5073954;28;20420;-75
2022/02/19 04:37:33;;;;;;;10.63;0.90;;;5.30;1.00;;;;;;5073660;28;20386;-75
2022/02/19 04:40:11;;;;;;;4.30;0.60;;;5.20;1.00;;;;;;5088065;28;20511;-75
2022/02/19 04:42:37;;;;;;;2.40;1.03;;;5.20;1.00;;;;;;5084725;28;20879;-75
2022/02/19 04:45:03;;;;;;;3.37;0.80;;;5.10;1.00;;;;;;5077235;28;20431;-75
2022/02/19 04:47:50;;;;;;;1.97;0.60;;;5.10;1.00;;;;;;5093714;28;20170;-75
2022/02/19 04:50:16;;;;;;;8.47;0.70;;;5.00;1.00;;;;;;5073715;28;20456;-75
2022/02/19 04:52:57;;;;;;;8.03;0.90;;;5.00;1.00;;;;;;5085038;28;20507;-75
2022/02/19 04:55:23;;;;;;;8.00;1.73;;;5.10;1.00;;;;;;5075549;28;20826;-75
2022/02/19 04:57:48;;;;;;;0.50;0.50;;;5.10;1.00;;;;;;5081081;28;20412;-75
2022/02/19 05:00:18;;;;;;;2.60;0.90;;;5.00;1.00;;;;;;5092948;28;20241;-75
2022/02/19 05:02:51;;;;;;;0.63;0.60;;;4.90;1.00;;;;;;5085330;28;20187;-75
2022/02/19 05:05:27;;;;;;;5.33;0.83;;;4.90;1.00;;;;;;5084350;28;20448;-75
2022/02/19 05:08:21;;;;;;;11.40;1.27;;;4.80;1.00;;;;;;5087189;28;20413;-75
2022/02/19 05:10:46;;;;;;;2.50;0.80;;;4.90;1.00;;;;;;5073964;28;20469;-75
2022/02/19 05:13:12;;;;;;;6.83;0.70;;;5.00;1.00;;;;;;5093646;28;20389;-75
2022/02/19 05:15:38;;;;;;;5.00;0.70;;;5.00;1.00;;;;;;5091098;28;20174;-75
2022/02/19 05:18:05;;;;;;;3.63;1.00;;;5.00;1.00;;;;;;5076105;28;20214;-76
2022/02/19 05:20:39;;;;;;;2.93;1.03;;;5.10;1.00;;;;;;5079186;28;20164;-74
2022/02/19 05:23:05;;;;;;;4.73;0.60;;;5.20;1.00;;;;;;5081756;28;20424;-73
2022/02/19 05:25:33;;;;;;;9.10;1.23;;;5.30;1.00;;;;;;5090983;28;20418;-73
2022/02/19 05:28:03;;;;;;;3.03;0.60;;;5.40;1.00;;;;;;5084576;28;20186;-73
2022/02/19 05:30:34;;;;;;;8.70;0.80;;;5.50;1.00;;;;;;5089782;28;20456;-73
2022/02/19 05:33:03;;;;;;;0.60;0.50;;;5.50;1.00;;;;;;5083385;28;20517;-73
2022/02/19 05:35:29;;;;;;;1.07;0.50;;;5.60;1.00;;;;;;5087076;28;20423;-76
2022/02/19 05:38:03;;;;;;;0.90;0.70;;;5.60;1.00;;;;;;5083059;28;20507;-76
2022/02/19 05:40:29;;;;;;;10.10;0.97;;;5.70;1.00;;;;;;5090951;28;20186;-76
2022/02/19 05:42:55;;;;;;;6.83;0.60;;;5.70;1.00;;;;;;5082084;28;20416;-75
2022/02/19 05:45:33;;;;;;;4.10;0.83;;;5.70;1.00;;;;;;5086486;28;20179;-76
2022/02/19 05:47:59;;;;;;;8.40;0.73;;;5.70;1.00;;;;;;5084728;28;20618;-75
2022/02/19 05:50:33;;;;;;;5.30;1.00;;;5.70;1.00;;;;;;5083725;28;20460;-73
2022/02/19 05:53:01;;;;;;;3.03;0.80;;;5.70;1.00;;;;;;5071475;28;20581;-73
2022/02/19 05:55:27;;;;;;;3.17;0.50;;;5.70;1.00;;;;;;5087443;28;20425;-74
2022/02/19 05:57:53;;;;;;;3.17;0.80;;;5.80;1.00;;;;;;5092530;28;21363;-73
2022/02/19 06:00:22;;;;;;;1.90;0.70;;;5.80;1.00;;;;;;5075963;28;20181;-73
2022/02/19 06:02:57;;;;;;;3.30;0.47;;;5.70;1.00;;;;;;5071307;28;20467;-73
2022/02/19 06:05:27;;;;;;;11.97;1.37;;;5.80;1.00;;;;;;5076857;28;20428;-73
2022/02/19 06:07:53;;;;;;;1.37;0.60;;;5.80;1.00;;;;;;5078781;28;20449;-74
2022/02/19 06:10:18;;;;;;;2.60;0.70;;;5.70;1.00;;;;;;5078250;28;20488;-73
2022/02/19 06:12:44;;;;;;;7.37;0.90;;;5.70;1.00;;;;;;5078561;28;20258;-73
2022/02/19 06:15:10;;;;;;;2.43;0.60;;;5.60;1.00;;;;;;5076257;28;20171;-73
2022/02/19 06:17:36;;;;;;;5.90;0.80;;;5.70;1.00;;;;;;5089576;28;20183;-73
2022/02/19 06:20:03;;;;;;;2.27;0.73;;;5.70;1.00;;;;;;5076476;28;20471;-73
2022/02/19 06:22:28;;;;;;;5.23;0.80;;;5.60;1.00;;;;;;5081245;28;20798;-73
2022/02/19 06:24:54;;;;;;;2.50;0.70;;;5.50;1.00;;;;;;5085450;28;20417;-73
2022/02/19 06:27:27;;;;;;;1.00;0.90;;;5.50;1.00;;;;;;5089831;28;20171;-74
2022/02/19 06:30:03;;;;;;;2.83;0.50;;;5.50;1.00;;;;;;5086254;28;20599;-73
2022/02/19 06:32:29;;;;;;;4.50;0.70;;;5.50;1.00;;;;;;5077674;28;20512;-73
2022/02/19 06:34:54;;;;;;;2.63;0.60;;;5.50;1.00;;;;;;5076054;28;20582;-73
2022/02/19 06:37:21;;;;;;;4.83;0.70;;;5.50;1.00;;;;;;5088692;28;20725;-75
2022/02/19 06:40:27;;;;;;;4.73;1.07;;;5.50;1.00;;;;;;5079019;28;20500;-75
2022/02/19 06:42:52;;;;;;;6.10;0.90;;;5.50;1.00;;;;;;5079262;28;20473;-75
2022/02/19 06:45:39;;;;;;;3.03;0.60;;;5.50;1.00;;;;;;5077729;28;20487;-76
2022/02/19 06:48:09;;;;;;;1.67;0.60;;;5.50;1.00;;;;;;5083787;28;20172;-75
2022/02/19 06:50:35;;;;;;;1.40;0.80;;;5.50;1.00;;;;;;5089222;28;20475;-73
2022/02/19 06:53:03;;;;;;;12.63;1.00;;;5.50;1.00;;;;;;5076340;28;20469;-73
2022/02/19 06:55:29;;;;;;;3.70;0.73;;;5.40;1.00;;;;;;5090165;28;20413;-74
2022/02/19 06:57:55;;;;;;;4.83;1.07;;;5.40;1.00;;;;;;5087478;28;20413;-73
2022/02/19 07:00:21;;;;;;;1.43;0.60;;;5.50;1.00;;;;;;5087116;28;20179;-73
2022/02/19 07:02:47;;;;;;;8.13;0.70;;;5.50;1.00;;;;;;5079959;28;20174;-73
2022/02/19 07:05:15;;;;;;;2.30;0.80;;;5.50;1.00;;;;;;5082774;28;20435;-73
2022/02/19 07:07:41;;;;;;;3.03;0.70;;;5.40;1.00;;;;;;5082237;28;20552;-73
2022/02/19 07:10:09;;;;;;;2.90;0.70;;;;;;;;;;5089296;28;20444;-74
2022/02/19 07:12:37;;;;;;;1.90;0.60;;;5.50;1.00;;;;;;5081993;28;20178;-75
2022/02/19 07:15:10;;;;;;;17.20;1.03;;;5.60;1.00;;;;;;5085230;28;20409;-74
2022/02/19 07:17:53;;;;;;;3.40;0.90;;;5.60;1.00;;;;;;5089808;28;20972;-73
2022/02/19 07:20:23;;;;;;;2.77;0.90;;;5.70;1.00;;;;;;5078449;28;20540;-73
2022/02/19 07:22:57;;;;;;;6.67;1.10;;;5.70;1.00;;;;;;5082554;28;20938;-76
2022/02/19 07:25:27;;;;;;;5.57;0.63;;;5.80;1.00;;;;;;5081456;28;20420;-76
2022/02/19 07:27:57;;;;;;;0.63;0.50;;;5.80;1.00;;;;;;5086686;28;20441;-75
2022/02/19 07:30:27;;;;;;;1.00;0.97;;;5.80;1.00;;;;;;5077690;28;20498;-76
2022/02/19 07:33:10;;;;;;;1.73;0.60;;;5.90;1.00;;;;;;5085016;28;20445;-75
2022/02/19 07:35:39;;;;;;;1.53;1.23;;;5.90;1.00;;;;;;5088295;28;20417;-75
2022/02/19 07:38:09;;;;;;;2.30;0.73;;;5.90;1.00;;;;;;5087060;28;20963;-73
2022/02/19 07:40:39;;;;;;;0.40;0.30;;;;;;;;;;5080894;28;20420;-73
2022/02/19 07:43:09;;;;;;;3.50;0.60;;;6.00;1.00;;;;;;5082659;28;20450;-73
2022/02/19 07:45:35;;;;;;;7.80;0.93;;;6.10;1.00;;;;;;5082324;28;20483;-73
2022/02/19 07:48:12;;;;;;;2.87;0.50;;;6.00;1.00;;;;;;5079890;28;20494;-74
2022/02/19 07:59:01;;;;;;;4.33;0.60;;;6.20;1.00;;;;;;5092254;28;20465;-74
2022/02/19 08:01:39;;;;;;;4.57;0.90;;;6.20;1.00;;;;;;5074144;28;20425;-73
2022/02/19 08:04:09;;;;;;;10.80;0.90;;;6.30;1.00;;;;;;5075305;28;20637;-73
2022/02/19 08:06:35;;;;;;;1.80;0.50;;;6.30;1.00;;;;;;5080507;28;20818;-73
2022/02/19 08:09:27;;;;;;;5.77;0.70;;;6.30;1.00;;;;;;5075847;28;20432;-73
2022/02/19 08:11:57;;;;;;;5.73;0.90;;;6.40;1.00;;;;;;5076036;28;20289;-74
2022/02/19 08:14:23;;;;;;;1.67;0.50;;;6.40;1.00;;;;;;5081387;28;20417;-73
2022/02/19 08:16:48;;;;;;;0.87;0.70;;;6.40;1.00;;;;;;5079840;28;20421;-73
2022/02/19 08:19:15;;;;;;;8.70;1.30;;;6.50;1.00;;;;;;5074888;28;20261;-73
2022/02/19 08:21:45;;;;;;;4.83;0.60;;;6.60;1.00;;;;;;5072895;28;20668;-75
2022/02/19 08:24:27;;;;;;;3.43;0.80;;;6.50;1.00;;;;;;5083608;28;20428;-78
2022/02/19 08:26:57;;;;;;;4.30;0.90;;;6.60;1.00;;;;;;5086728;28;20424;-75
2022/02/19 08:29:33;;;;;;;2.20;0.70;;;6.70;1.00;;;;;;5077087;28;20948;-76
2022/02/19 08:32:32;;;;;;;3.17;0.70;;;6.70;1.00;;;;;;5086137;28;20424;-75
2022/02/19 08:35:16;;;;;;;2.50;0.70;;;6.70;1.00;;;;;;5085055;28;20817;-75
2022/02/19 08:37:45;;;;;;;1.83;0.70;;;6.80;1.00;;;;;;5082084;28;20401;-73
2022/02/19 08:40:14;;;;;;;1.07;0.50;;;6.80;1.00;;;;;;5078975;28;20409;-73
2022/02/19 08:42:45;;;;;;;3.53;0.63;;;6.80;1.00;;;;;;5081979;28;20412;-74
2022/02/19 08:45:21;;;;;;;2.20;0.97;;;6.80;1.00;;;;;;5086943;28;20942;-73
2022/02/19 08:47:51;;;;;;;2.00;0.40;;;6.80;1.00;;;;;;5081335;28;20442;-73
2022/02/19 08:50:17;;;;;;;1.90;0.60;;;6.90;1.00;;;;;;5081718;28;20456;-73
2022/02/19 08:52:51;;;;;;;2.03;0.60;;;6.90;1.00;;;;;;5084124;28;20431;-74
2022/02/19 08:55:39;;;;;;;3.57;0.70;;;6.90;1.00;;;;;;5077362;28;20923;-74
2022/02/19 08:58:06;;;;;;;1.00;0.50;;;7.00;1.00;;;;;;5084008;28;20420;-72
2022/02/19 09:00:31;;;;;;;6.80;0.90;;;6.90;1.00;;;;;;5080045;28;20421;-75
2022/02/19 09:02:57;;;;;;;16.53;1.50;;;7.00;1.00;;;;;;5082066;28;20510;-73
2022/02/19 09:05:23;;;;;;;8.50;0.90;;;7.00;1.00;;;;;;5077011;28;20186;-84
2022/02/19 09:07:51;;;;;;;1.50;0.47;;;7.10;1.00;;;;;;5085251;28;20506;-78
2022/02/19 09:10:33;;;;;;;1.70;0.50;;;7.00;1.00;;;;;;5079854;28;20880;-78
2022/02/19 09:13:04;;;;;;;6.90;1.00;;;7.00;1.00;;;;;;5087438;28;20456;-77
2022/02/19 09:15:33;;;;;;;4.80;0.40;;;7.10;1.00;;;;;;5073700;28;20428;-78
2022/02/19 09:18:09;;;;;;;5.60;0.70;;;7.00;1.00;;;;;;5085538;28;20825;-77
2022/02/19 09:20:39;;;;;;;2.40;0.67;;;7.10;1.00;;;;;;5081372;28;20778;-76
2022/02/19 09:23:15;;;;;;;6.13;0.60;;;7.20;1.00;;;;;;5080213;28;20836;-78
2022/02/19 09:25:57;;;;;;;1.73;0.67;;;7.20;1.00;;;;;;5082135;28;20820;-77
2022/02/19 09:28:39;;;;;;;4.63;0.83;;;7.30;1.00;;;;;;5086788;28;20420;-77
2022/02/19 09:31:27;;;;;;;3.70;0.60;;;7.40;1.00;;;;;;5073843;28;20465;-77
2022/02/19 09:34:03;;;;;;;2.27;0.67;;;7.50;1.00;;;;;;5081245;28;20441;-76
2022/02/19 09:36:39;;;;;;;2.83;0.53;;;7.50;1.00;;;;;;5086694;28;20412;-77
2022/02/19 09:39:27;;;;;;;1.53;0.80;;;7.60;1.00;;;;;;5087797;28;20408;-77
2022/02/19 09:42:02;;;;;;;6.93;1.17;;;7.70;1.00;;;;;;5087881;28;20418;-77
2022/02/19 09:44:57;;;;;;;2.40;0.50;;;7.70;1.00;;;;;;5083843;28;20449;-78
2022/02/19 09:47:39;;;;;;;4.20;0.80;;;7.80;1.00;;;;;;5090543;28;20516;-77
2022/02/19 09:50:07;;;;;;;3.83;0.93;;;7.80;1.00;;;;;;5079029;28;20467;-77
2022/02/19 09:52:33;;;;;;;3.53;0.70;;;7.80;1.00;;;;;;5082039;28;20802;-77
2022/02/19 09:55:27;;;;;;;4.53;0.90;;;7.80;1.00;;;;;;5086163;28;20904;-77
2022/02/19 09:57:57;;;;;;;3.10;0.90;;;7.70;1.00;;;;;;5091118;28;20166;-78
2022/02/19 10:00:46;;;;;;;3.50;0.70;;;7.70;1.00;;;;;;5093399;28;20417;-79
2022/02/19 10:03:25;;;;;;;2.50;0.67;;;7.80;1.00;;;;;;5082132;28;20411;-79
2022/02/19 10:05:53;;;;;;;4.10;0.90;;;7.80;1.00;;;;;;5088990;28;20975;-78
2022/02/19 10:11:41;;;;;;;1.77;0.60;;;7.90;1.00;;;;;;5084415;28;20465;-77
2022/02/19 10:14:31;;;;;;;3.83;0.60;;;8.00;1.00;;;;;;5082817;28;20906;-77
2022/02/19 10:17:17;;;;;;;1.17;0.87;;;8.00;1.00;;;;;;5094771;28;20853;-78
2022/02/19 10:20:11;;;;;;;3.87;0.90;;;7.90;1.00;;;;;;5084156;28;20490;-77
2022/02/19 10:23:15;;;;;;;3.13;0.80;;;8.00;1.00;;;;;;5082269;28;20432;-77
2022/02/19 10:26:03;;;;;;;9.83;0.50;;;8.20;1.00;;;;;;5079600;28;20499;-76
2022/02/19 10:28:29;;;;;;;2.40;0.67;;;8.40;1.00;;;;;;5083020;28;20443;-77
2022/02/19 10:30:55;;;;;;;1.73;0.63;;;8.30;1.00;;;;;;5089378;28;20461;-74
2022/02/19 10:33:26;;;;;;;1.70;0.73;;;8.40;1.00;;;;;;5076073;28;20174;-74
2022/02/19 10:35:52;;;;;;;5.47;1.10;;;8.50;1.00;;;;;;5079353;28;20526;-73
2022/02/19 10:38:27;;;;;;;4.63;0.60;;;8.50;1.00;;;;;;5086489;28;20426;-78
2022/02/19 10:40:57;;;;;;;0.70;0.50;;;8.40;1.00;;;;;;5076045;28;20458;-77
2022/02/19 10:43:31;;;;;;;8.53;1.03;;;8.40;1.00;;;;;;5078296;28;20793;-76
2022/02/19 10:46:02;;;;;;;2.80;1.80;;;8.60;1.00;;;;;;5090184;28;20758;-77
2022/02/19 10:48:36;;;;;;;2.10;0.63;;;8.60;1.00;;;;;;5088138;28;20470;-76
2022/02/19 10:51:13;;;;;;;4.27;0.70;;;8.70;1.00;;;;;;5078357;28;20513;-76
2022/02/19 10:54:12;;;;;;;3.50;0.50;;;8.70;1.00;;;;;;5076054;28;20911;-77
2022/02/19 10:56:38;;;;;;;4.77;0.70;;;8.50;1.00;;;;;;5008567;28;20440;-76
2022/02/19 10:59:12;;;;;;;1.80;0.90;;;8.50;1.00;;;;;;5013324;28;20428;-76
2022/02/19 11:01:50;;;;;;;2.90;0.70;;;8.60;1.00;;;;;;4997105;28;20514;-76
2022/02/19 11:04:22;;;;;;;1.50;0.70;;;8.70;1.00;;;;;;5000111;28;20455;-76
2022/02/19 11:06:53;;;;;;;4.13;0.80;;;8.80;1.00;;;;;;5013418;28;20424;-76
2022/02/19 11:09:19;;;;;;;4.30;0.70;;;8.80;99.90;;;;;;5013383;28;20427;-75
2022/02/19 11:11:46;;;;;;;2.30;0.70;;;8.90;99.90;;;;;;5013323;28;21074;-76
2022/02/19 11:14:27;;;;;;;20.50;11.93;;;8.80;99.90;;;;;;5013560;28;20420;-76
2022/02/19 11:17:29;;;;;;;2.67;1.67;;;8.80;99.90;;;;;;4996955;28;20813;-77
2022/02/19 11:20:06;;;;;;;2.77;1.47;;;8.80;99.90;;;;;;5001062;28;20446;-76
2022/02/19 11:22:34;;;;;;;1.37;0.53;;;8.80;99.90;;;;;;5012976;28;20428;-76
2022/02/19 11:25:09;;;;;;;1.27;0.97;;;8.80;99.90;;;;;;5010599;28;20427;-78
2022/02/19 11:27:58;;;;;;;0.93;0.50;;;8.70;99.90;;;;;;5003746;28;20607;-77
2022/02/19 11:30:48;;;;;;;1.53;0.60;;;8.60;99.90;;;;;;4989318;28;20464;-77
2022/02/19 11:33:18;;;;;;;3.33;1.20;;;8.70;99.90;;;;;;5035946;28;20752;-81
2022/02/19 11:35:52;;;;;;;3.10;1.10;;;8.80;99.90;;;;;;5053076;28;20425;-75
2022/02/19 11:38:22;;;;;;;1.60;0.60;;;8.90;99.90;;;;;;5072479;28;20981;-76
2022/02/19 11:40:52;;;;;;;4.13;1.37;;;8.90;99.90;;;;;;5054205;28;20484;-73
2022/02/19 11:43:40;;;;;;;8.07;2.80;;;8.90;99.90;;;;;;5044203;28;20425;-73
2022/02/19 11:46:15;;;;;;;2.90;1.00;;;8.90;1.00;;;;;;5064300;28;21304;-73
2022/02/19 11:48:48;;;;;;;3.93;0.70;;;9.00;1.00;;;;;;5060487;28;20436;-73
2022/02/19 11:51:22;;;;;;;3.57;0.90;;;9.00;99.90;;;;;;5057433;28;20454;-73
2022/02/19 11:53:50;;;;;;;1.10;0.60;;;9.00;1.00;;;;;;5065964;28;20484;-73
2022/02/19 11:56:28;;;;;;;6.03;0.60;;;8.90;99.90;;;;;;5060669;28;20417;-72
2022/02/19 11:58:57;;;;;;;2.23;0.60;;;8.90;99.90;;;;;;5071496;28;20424;-72
2022/02/19 12:01:23;;;;;;;6.60;1.57;;;8.80;99.90;;;;;;5065398;28;20430;-72
2022/02/19 12:04:19;;;;;;;5.50;0.70;;;8.80;99.90;;;;;;5060938;28;20824;-73
2022/02/19 12:06:46;;;;;;;0.60;0.60;;;8.70;99.90;;;;;;5000186;28;20553;-72
2022/02/19 12:09:17;;;;;;;2.30;0.60;;;8.60;99.90;;;;;;5027521;28;20424;-73
2022/02/19 12:11:49;;;;;;;0.97;0.50;;;8.60;99.90;;;;;;5021692;28;20541;-76
2022/02/19 12:14:41;;;;;;;11.33;0.83;;;8.60;99.90;;;;;;5031864;28;20805;-76
2022/02/19 12:17:22;;;;;;;3.23;0.63;;;8.70;99.90;;;;;;5022905;28;20898;-76
2022/02/19 12:20:15;;;;;;;2.53;0.60;;;9.10;99.90;;;;;;5028045;28;20412;-76
2022/02/19 12:23:03;;;;;;;3.80;0.70;;;9.10;1.00;;;;;;5024412;28;20492;-76
2022/02/19 12:29:20;;;;;;;4.83;1.07;;;9.20;99.90;;;;;;5031552;28;20422;-76
2022/02/19 12:35:33;;;;;;;1.33;0.50;;;9.10;1.00;;;;;;5031600;28;20442;-76
2022/02/19 12:37:59;;;;;;;4.13;0.63;;;9.20;1.00;;;;;;5031776;28;20446;-76
2022/02/19 12:40:40;;;;;;;2.93;0.63;;;9.30;1.00;;;;;;5028468;28;20402;-76
2022/02/19 12:43:12;;;;;;;0.80;0.50;;;9.30;99.90;;;;;;5035402;28;20876;-72
2022/02/19 12:45:39;;;;;;;1.43;0.80;;;9.20;99.90;;;;;;5080828;28;20461;-73
2022/02/19 12:48:05;;;;;;;5.53;0.77;;;9.20;99.90;;;;;;5086762;28;20910;-73
2022/02/19 12:50:52;;;;;;;4.07;0.70;;;9.30;99.90;;;;;;5080692;28;20452;-74
2022/02/19 12:53:23;;;;;;;1.63;0.60;;;9.50;99.90;;;;;;5086702;28;20432;-72
2022/02/19 12:55:56;;;;;;;3.37;0.90;;;9.60;99.90;;;;;;5079319;28;21064;-73
2022/02/19 12:58:24;;;;;;;5.27;0.90;;;9.60;99.90;;;;;;5088491;28;20413;-74
2022/02/19 13:01:15;;;;;;;6.20;0.90;;;9.70;99.90;;;;;;5073338;28;20416;-74
2022/02/19 13:03:45;;;;;;;1.67;0.93;;;9.80;99.90;;;;;;5082892;28;20416;-76
2022/02/19 13:06:24;;;;;;;4.23;1.53;;;9.70;99.90;;;;;;5090844;28;20436;-75
2022/02/19 13:09:01;;;;;;;3.63;1.73;;;9.70;99.90;;;;;;5081548;28;20448;-75
2022/02/19 13:11:29;;;;;;;1.73;1.00;;;9.70;99.90;;;;;;5089968;28;20528;-73
2022/02/19 13:13:54;;;;;;;3.13;0.87;;;9.50;99.90;;;;;;5092791;28;20470;-72
2022/02/19 13:16:33;;;;;;;4.20;0.80;;;9.40;99.90;;;;;;5078617;28;20417;-73
2022/02/19 13:18:59;;;;;;;6.20;0.90;;;;;;;;;;5075343;28;20170;-72
2022/02/19 13:21:28;;;;;;;4.30;1.37;;;9.70;99.90;;;;;;5075847;28;20409;-73
2022/02/19 13:23:58;;;;;;;1.70;1.00;;;9.70;99.90;;;;;;5082302;28;20436;-72
2022/02/19 13:26:29;;;;;;;1.37;0.80;;;9.70;99.90;;;;;;5079175;28;20439;-73
2022/02/19 13:28:59;;;;;;;1.73;0.77;;;9.80;99.90;;;;;;5079436;28;20568;-78
2022/02/19 13:31:34;;;;;;;3.00;0.60;;;9.70;99.90;;;;;;5080685;28;20418;-78
2022/02/19 13:34:17;;;;;;;2.03;0.67;;;9.50;99.90;;;;;;5082338;28;20423;-77
2022/02/19 13:36:46;;;;;;;2.03;0.80;;;9.50;99.90;;;;;;5088456;28;20457;-78
2022/02/19 13:39:17;;;;;;;14.93;0.80;;;9.70;99.90;;;;;;5077962;28;20425;-78
2022/02/19 13:41:53;;;;;;;3.27;0.70;;;9.40;99.90;;;;;;5079920;28;20960;-78
2022/02/19 13:44:22;;;;;;;1.77;1.13;;;9.30;99.90;;;;;;5083407;28;20440;-78
2022/02/19 13:47:24;;;;;;;4.43;0.80;;;9.10;99.90;;;;;;5064235;28;20532;-78
2022/02/19 13:49:52;;;;;;;2.30;0.57;;;9.00;99.90;;;;;;5091163;28;20894;-78
2022/02/19 13:52:26;;;;;;;3.00;0.73;;;8.90;99.90;;;;;;5075344;28;20519;-78
2022/02/19 13:55:16;;;;;;;2.77;0.60;;;9.00;99.90;;;;;;5073326;28;20463;-78
2022/02/19 13:57:52;;;;;;;1.43;0.80;;;9.00;99.90;;;;;;5090101;28;20496;-72